sensor_id;sensor_type;location;lat;lon;timestamp;P1;durP1;ratioP1;P2;durP2;ratioP2
21448;SDS011;10885;52.830;13.788;2022-07-29T16:37:38;7.82;;;2.72;;
21448;SDS011;10885;52.830;13.788;2022-07-29T16:42:40;6.15;;;2.22;;
21448;SDS011;10885;52.830;13.788;2022-07-29T16:47:48;5.35;;;2.53;;
21448;SDS011;10885;52.830;13.788;2022-07-29T16:52:50;4.22;;;2.42;;
21448;SDS011;10885;52.830;13.788;2022-07-29T16:57:53;9.38;;;2.42;;
21448;SDS011;10885;52.830;13.788;2022-07-29T17:02:55;4.88;;;2.42;;
21448;SDS011;10885;52.830;13.788;2022-07-29T17:07:57;9.30;;;3.00;;
21448;SDS011;10885;52.830;13.788;2022-07-29T17:13:00;6.00;;;3.10;;
21448;SDS011;10885;52.830;13.788;2022-07-29T17:18:02;7.93;;;2.78;;
21448;SDS011;10885;52.830;13.788;2022-07-29T17:23:13;6.25;;;2.53;;
21448;SDS011;10885;52.830;13.788;2022-07-29T17:28:16;10.38;;;2.90;;
21448;SDS011;10885;52.830;13.788;2022-07-29T17:33:18;10.52;;;2.75;;
21448;SDS011;10885;52.830;13.788;2022-07-29T17:38:20;9.75;;;2.25;;
21448;SDS011;10885;52.830;13.788;2022-07-29T17:43:23;4.57;;;2.45;;
21448;SDS011;10885;52.830;13.788;2022-07-29T17:48:25;7.20;;;2.45;;
21448;SDS011;10885;52.830;13.788;2022-07-29T17:53:28;4.53;;;2.45;;
21448;SDS011;10885;52.830;13.788;2022-07-29T17:58:30;6.47;;;2.53;;
21448;SDS011;10885;52.830;13.788;2022-07-29T18:03:33;4.28;;;2.58;;
21448;SDS011;10885;52.830;13.788;2022-07-29T18:08:38;10.05;;;2.83;;
21448;SDS011;10885;52.830;13.788;2022-07-29T18:13:40;4.25;;;2.63;;
21448;SDS011;10885;52.830;13.788;2022-07-29T18:18:43;6.65;;;2.55;;
21448;SDS011;10885;52.830;13.788;2022-07-29T18:23:46;5.95;;;3.00;;
21448;SDS011;10885;52.830;13.788;2022-07-29T18:28:51;5.80;;;3.15;;
21448;SDS011;10885;52.830;13.788;2022-07-29T18:33:54;6.20;;;3.13;;
21448;SDS011;10885;52.830;13.788;2022-07-29T18:39:00;9.98;;;3.35;;
21448;SDS011;10885;52.830;13.788;2022-07-29T18:44:03;7.05;;;3.13;;
21448;SDS011;10885;52.830;13.788;2022-07-29T18:49:06;9.85;;;2.45;;
21448;SDS011;10885;52.830;13.788;2022-07-29T18:54:09;4.15;;;2.72;;
21448;SDS011;10885;52.830;13.788;2022-07-29T18:59:11;5.22;;;2.78;;
21448;SDS011;10885;52.830;13.788;2022-07-29T19:04:17;4.88;;;3.08;;
21448;SDS011;10885;52.830;13.788;2022-07-29T19:09:20;6.68;;;3.00;;
21448;SDS011;10885;52.830;13.788;2022-07-29T19:14:22;6.53;;;3.40;;
21448;SDS011;10885;52.830;13.788;2022-07-29T19:19:24;5.40;;;3.60;;
21448;SDS011;10885;52.830;13.788;2022-07-29T19:24:27;7.35;;;3.10;;
21448;SDS011;10885;52.830;13.788;2022-07-29T19:29:30;5.03;;;2.58;;
21448;SDS011;10885;52.830;13.788;2022-07-29T19:34:33;9.65;;;2.90;;
21448;SDS011;10885;52.830;13.788;2022-07-29T19:39:36;8.82;;;2.80;;
21448;SDS011;10885;52.830;13.788;2022-07-29T19:44:38;7.55;;;3.13;;
21448;SDS011;10885;52.830;13.788;2022-07-29T19:49:41;5.55;;;2.72;;
21448;SDS011;10885;52.830;13.788;2022-07-29T19:54:43;6.97;;;2.97;;
21448;SDS011;10885;52.830;13.788;2022-07-29T19:59:45;11.90;;;3.08;;
21448;SDS011;10885;52.830;13.788;2022-07-29T20:04:47;5.45;;;2.90;;
21448;SDS011;10885;52.830;13.788;2022-07-29T20:09:50;7.07;;;2.75;;
21448;SDS011;10885;52.830;13.788;2022-07-29T20:14:55;12.10;;;3.10;;
21448;SDS011;10885;52.830;13.788;2022-07-29T20:19:58;7.45;;;3.22;;
21448;SDS011;10885;52.830;13.788;2022-07-29T20:25:02;9.23;;;3.40;;
21448;SDS011;10885;52.830;13.788;2022-07-29T20:30:05;8.25;;;3.25;;
21448;SDS011;10885;52.830;13.788;2022-07-29T20:35:09;9.63;;;3.60;;
21448;SDS011;10885;52.830;13.788;2022-07-29T20:40:12;7.22;;;2.97;;
21448;SDS011;10885;52.830;13.788;2022-07-29T20:45:15;5.75;;;2.92;;
21448;SDS011;10885;52.830;13.788;2022-07-29T20:50:18;7.45;;;3.17;;
21448;SDS011;10885;52.830;13.788;2022-07-29T20:55:25;9.23;;;4.15;;
21448;SDS011;10885;52.830;13.788;2022-07-29T21:00:27;8.55;;;3.72;;
21448;SDS011;10885;52.830;13.788;2022-07-29T21:05:30;10.60;;;3.53;;
21448;SDS011;10885;52.830;13.788;2022-07-29T21:10:32;4.70;;;3.28;;
21448;SDS011;10885;52.830;13.788;2022-07-29T21:15:35;6.53;;;3.10;;
21448;SDS011;10885;52.830;13.788;2022-07-29T21:20:37;10.38;;;2.97;;
21448;SDS011;10885;52.830;13.788;2022-07-29T21:25:39;10.20;;;3.38;;
21448;SDS011;10885;52.830;13.788;2022-07-29T21:30:42;7.07;;;3.30;;
21448;SDS011;10885;52.830;13.788;2022-07-29T21:35:44;6.80;;;3.17;;
21448;SDS011;10885;52.830;13.788;2022-07-29T21:41:06;4.68;;;2.95;;
